createdAt,value
2024-04-11T00:03:08.793Z,20.20
2024-04-11T00:06:38.701Z,18.80
2024-04-11T00:10:05.243Z,19.90
2024-04-11T00:13:31.356Z,16.90
2024-04-11T00:16:58.689Z,18.60
2024-04-11T00:20:24.974Z,17.10
2024-04-11T00:23:51.847Z,18.60
2024-04-11T00:27:18.537Z,18.30
2024-04-11T00:30:44.600Z,17.80
2024-04-11T00:34:24.052Z,21.70
2024-04-11T00:37:50.622Z,19.40
2024-04-11T00:41:17.124Z,22.00
2024-04-11T00:44:43.483Z,16.30
2024-04-11T00:48:10.477Z,21.30
2024-04-11T00:51:36.649Z,17.20
2024-04-11T00:55:03.262Z,17.20
2024-04-11T00:58:29.956Z,20.80
2024-04-11T01:01:56.004Z,17.60
2024-04-11T01:05:22.201Z,21.00
2024-04-11T01:08:48.018Z,23.10
2024-04-11T01:12:15.082Z,16.60
2024-04-11T01:15:41.161Z,14.90
2024-04-11T01:19:07.389Z,21.70
2024-04-11T01:22:33.933Z,23.40
2024-04-11T01:26:00.601Z,19.20
2024-04-11T01:29:26.699Z,17.20
2024-04-11T01:33:02.095Z,17.70
2024-04-11T01:36:29.029Z,20.90
2024-04-11T01:39:55.177Z,14.70
2024-04-11T01:43:21.163Z,20.70
2024-04-11T01:46:47.268Z,18.90
2024-04-11T01:50:13.435Z,16.00
2024-04-11T01:53:39.895Z,15.50
2024-04-11T01:57:07.098Z,21.40
2024-04-11T02:00:37.563Z,19.20
2024-04-11T02:04:06.806Z,16.80
2024-04-11T02:07:35.991Z,21.00
2024-04-11T02:11:02.269Z,18.90
2024-04-11T02:14:28.351Z,19.00
2024-04-11T02:17:54.424Z,17.70
2024-04-11T02:21:20.828Z,23.40
2024-04-11T02:24:47.776Z,20.40
2024-04-11T02:28:14.744Z,17.10
2024-04-11T02:31:41.157Z,21.20
2024-04-11T02:35:07.412Z,23.40
2024-04-11T02:38:33.297Z,20.80
2024-04-11T02:42:01.277Z,20.40
2024-04-11T02:45:28.465Z,24.30
2024-04-11T02:48:54.659Z,17.80
2024-04-11T02:52:20.910Z,18.20
2024-04-11T02:55:46.832Z,19.20
2024-04-11T02:59:13.359Z,21.00
2024-04-11T03:02:39.318Z,19.90
2024-04-11T03:06:11.125Z,22.90
2024-04-11T03:09:36.954Z,18.90
2024-04-11T03:13:02.788Z,19.40
2024-04-11T03:16:31.119Z,20.50
2024-04-11T03:19:57.165Z,20.20
2024-04-11T03:23:23.575Z,21.10
2024-04-11T03:26:49.548Z,17.70
2024-04-11T03:30:15.534Z,20.00
2024-04-11T03:33:41.925Z,33.60
2024-04-11T03:37:08.311Z,19.20
2024-04-11T03:40:34.780Z,24.00
2024-04-11T03:44:00.491Z,18.30
2024-04-11T03:47:26.505Z,17.90
2024-04-11T03:50:53.394Z,22.20
2024-04-11T03:54:20.210Z,20.50
2024-04-11T03:57:46.045Z,19.40
2024-04-11T04:01:14.289Z,19.90
2024-04-11T04:04:40.393Z,21.40
2024-04-11T04:08:07.034Z,19.40
2024-04-11T04:11:32.803Z,21.70
2024-04-11T04:14:59.111Z,24.20
2024-04-11T04:18:26.537Z,20.70
2024-04-11T04:21:52.352Z,25.00
2024-04-11T04:25:18.044Z,19.00
2024-04-11T04:28:44.409Z,22.60
2024-04-11T04:32:10.260Z,23.10
2024-04-11T04:35:36.071Z,22.20
2024-04-11T04:39:06.048Z,20.40
2024-04-11T04:42:32.056Z,24.20
2024-04-11T04:45:58.668Z,20.70
2024-04-11T04:49:25.064Z,23.80
2024-04-11T04:52:51.762Z,21.00
2024-04-11T04:56:18.997Z,23.50
2024-04-11T04:59:44.765Z,65.20
2024-04-11T05:03:11.461Z,26.90
2024-04-11T05:06:38.391Z,30.30
2024-04-11T05:10:04.652Z,25.00
2024-04-11T05:13:33.384Z,17.80
2024-04-11T05:16:59.919Z,33.30
2024-04-11T05:20:28.641Z,18.70
2024-04-11T05:23:56.731Z,20.80
2024-04-11T05:27:22.677Z,15.60
2024-04-11T05:30:49.401Z,10.80
2024-04-11T05:34:17.831Z,12.10
2024-04-11T05:37:46.146Z,38.60
2024-04-11T05:41:12.349Z,12.90
2024-04-11T05:44:38.115Z,21.30
2024-04-11T05:48:07.646Z,21.50
2024-04-11T05:51:36.226Z,14.20
2024-04-11T05:55:03.563Z,31.20
2024-04-11T05:58:29.708Z,29.70
2024-04-11T06:01:55.784Z,38.70
2024-04-11T06:05:21.934Z,11.60
2024-04-11T06:08:49.342Z,16.30
2024-04-11T06:12:15.725Z,19.70
2024-04-11T06:15:43.168Z,15.00
2024-04-11T06:19:09.297Z,11.60
2024-04-11T06:22:36.788Z,23.40
2024-04-11T06:26:03.437Z,32.70
2024-04-11T06:29:29.212Z,16.50
2024-04-11T06:32:59.008Z,26.60
2024-04-11T06:36:25.024Z,14.30
2024-04-11T06:39:50.907Z,15.60
2024-04-11T06:43:17.397Z,20.70
2024-04-11T06:46:46.596Z,10.60
2024-04-11T06:50:14.364Z,16.10
2024-04-11T06:53:44.378Z,10.90
2024-04-11T06:57:13.364Z,12.00
2024-04-11T07:00:42.184Z,12.60
2024-04-11T07:04:08.096Z,10.30
2024-04-11T07:07:36.461Z,11.30
2024-04-11T07:11:20.019Z,17.60
2024-04-11T07:14:51.466Z,7.80
2024-04-11T07:18:17.536Z,9.20
2024-04-11T07:21:44.851Z,11.80
2024-04-11T07:25:10.907Z,13.30
2024-04-11T07:28:37.583Z,52.40
2024-04-11T07:32:03.381Z,26.60
2024-04-11T07:35:31.233Z,16.90
2024-04-11T07:38:58.810Z,11.10
2024-04-11T07:42:44.678Z,9.70
2024-04-11T07:46:10.827Z,10.20
2024-04-11T07:49:38.273Z,13.60
2024-04-11T07:53:07.962Z,19.40
2024-04-11T08:00:02.378Z,20.10
2024-04-11T08:03:38.520Z,20.60
2024-04-11T08:07:04.629Z,7.40
2024-04-11T08:10:33.597Z,9.40
2024-04-11T08:13:59.484Z,6.80
2024-04-11T08:17:26.963Z,7.90
2024-04-11T08:20:52.749Z,8.00
2024-04-11T08:24:18.450Z,7.20
2024-04-11T08:27:44.588Z,5.50
2024-04-11T08:31:12.340Z,6.50
2024-04-11T08:34:39.985Z,14.20
2024-04-11T08:38:08.207Z,16.30
2024-04-11T08:41:34.064Z,8.80
2024-04-11T08:45:01.162Z,6.80
2024-04-11T08:48:28.296Z,11.30
2024-04-11T08:51:55.012Z,8.50
2024-04-11T08:55:21.332Z,9.30
2024-04-11T08:58:48.838Z,6.60
2024-04-11T09:02:14.627Z,6.40
2024-04-11T09:05:40.622Z,10.40
2024-04-11T09:09:11.434Z,7.50
2024-04-11T09:12:37.380Z,9.70
2024-04-11T09:16:09.800Z,9.30
2024-04-11T09:19:40.487Z,10.60
2024-04-11T09:23:06.642Z,19.80
2024-04-11T09:26:32.538Z,8.40
2024-04-11T09:29:58.455Z,15.50
2024-04-11T09:33:26.202Z,9.40
2024-04-11T09:36:53.200Z,9.10
2024-04-11T09:40:27.162Z,15.20
2024-04-11T09:43:56.856Z,8.90
2024-04-11T09:50:56.530Z,8.50
2024-04-11T09:54:23.459Z,12.00
2024-04-11T09:57:51.060Z,22.50
2024-04-11T10:01:31.074Z,6.60
2024-04-11T10:05:05.786Z,8.80
2024-04-11T10:08:37.412Z,10.70
2024-04-11T10:12:06.889Z,6.80
2024-04-11T10:15:35.171Z,4.80
2024-04-11T10:19:09.211Z,6.20
2024-04-11T10:22:44.210Z,11.00
2024-04-11T10:26:15.723Z,9.60
2024-04-11T10:29:44.596Z,10.00
2024-04-11T10:33:14.654Z,34.50
2024-04-11T10:36:43.762Z,5.20
2024-04-11T10:40:16.226Z,21.80
2024-04-11T10:43:46.597Z,7.80
2024-04-11T10:47:14.824Z,24.90
2024-04-11T10:50:43.483Z,7.60
2024-04-11T10:54:12.419Z,11.40
2024-04-11T10:57:39.244Z,7.10
2024-04-11T11:01:11.478Z,7.80
2024-04-11T11:04:44.312Z,5.70
2024-04-11T11:08:11.180Z,6.70
2024-04-11T11:11:41.080Z,4.30
2024-04-11T11:15:10.970Z,7.70
2024-04-11T11:22:06.544Z,7.20
2024-04-11T11:25:33.890Z,7.30
2024-04-11T11:28:59.696Z,4.40
2024-04-11T11:32:27.208Z,4.80
2024-04-11T11:35:53.268Z,5.10
2024-04-11T11:39:19.775Z,5.00
2024-04-11T11:42:45.510Z,6.10
2024-04-11T11:46:28.044Z,4.40
2024-04-11T11:49:55.242Z,4.80
2024-04-11T11:53:27.277Z,4.20
2024-04-11T11:57:10.354Z,3.60
2024-04-11T12:00:51.109Z,3.90
2024-04-11T12:04:17.168Z,4.60
2024-04-11T12:07:46.616Z,4.20
2024-04-11T12:11:22.673Z,7.00
2024-04-11T12:14:56.195Z,3.60
2024-04-11T12:18:23.637Z,6.50
2024-04-11T12:21:49.570Z,10.20
2024-04-11T12:25:17.647Z,5.00
2024-04-11T12:28:46.457Z,7.50
2024-04-11T12:32:13.868Z,6.40
2024-04-11T12:35:47.072Z,4.30
2024-04-11T12:39:14.696Z,6.60
2024-04-11T12:42:41.251Z,7.10
2024-04-11T12:46:07.481Z,4.60
2024-04-11T12:49:36.601Z,5.00
2024-04-11T12:53:11.382Z,4.30
2024-04-11T12:56:41.061Z,6.30
2024-04-11T13:00:10.628Z,6.60
2024-04-11T13:07:22.074Z,12.10
2024-04-11T13:10:50.128Z,5.00
2024-04-11T13:14:18.633Z,1.80
2024-04-11T13:17:44.662Z,6.00
2024-04-11T13:21:16.118Z,5.20
2024-04-11T13:24:49.080Z,6.80
2024-04-11T13:28:15.863Z,3.60
2024-04-11T13:31:41.823Z,5.00
2024-04-11T13:35:14.894Z,4.60
2024-04-11T13:38:43.462Z,7.10
2024-04-11T13:42:14.923Z,1.80
2024-04-11T13:45:42.838Z,4.70
2024-04-11T13:49:26.067Z,5.30
2024-04-11T13:52:52.490Z,6.00
2024-04-11T13:56:18.386Z,2.10
2024-04-11T13:59:44.425Z,5.00
2024-04-11T14:03:24.530Z,13.10
2024-04-11T14:07:04.846Z,9.90
2024-04-11T14:10:30.789Z,6.50
2024-04-11T14:13:57.416Z,4.00
2024-04-11T14:20:58.418Z,3.30
2024-04-11T14:24:36.750Z,4.70
2024-04-11T14:28:02.802Z,2.90
2024-04-11T14:31:32.257Z,8.90
2024-04-11T14:38:50.225Z,6.50
2024-04-11T14:42:23.754Z,10.30
2024-04-11T14:45:49.974Z,4.80
2024-04-11T14:49:17.319Z,2.60
2024-04-11T14:52:44.064Z,5.00
2024-04-11T14:56:18.940Z,5.20
2024-04-11T14:59:47.864Z,4.20
2024-04-11T15:03:17.141Z,4.00
2024-04-11T15:06:45.589Z,3.80
2024-04-11T15:10:18.927Z,4.10
2024-04-11T15:13:45.466Z,22.40
2024-04-11T15:17:21.004Z,3.40
2024-04-11T15:20:50.806Z,6.20
2024-04-11T15:24:19.351Z,5.00
2024-04-11T15:27:50.676Z,4.10
2024-04-11T15:31:30.502Z,4.00
2024-04-11T15:35:08.146Z,5.00
2024-04-11T15:38:39.714Z,4.30
2024-04-11T15:42:09.592Z,4.80
2024-04-11T15:45:35.916Z,4.40
2024-04-11T15:49:08.336Z,2.00
2024-04-11T15:52:35.523Z,6.60
2024-04-11T15:56:03.407Z,4.40
2024-04-11T15:59:32.939Z,4.60
2024-04-11T16:06:33.306Z,5.20
2024-04-11T16:09:59.033Z,4.60
2024-04-11T16:13:28.960Z,3.10
2024-04-11T16:16:56.358Z,5.00
2024-04-11T16:20:22.214Z,4.30
2024-04-11T16:23:57.909Z,7.90
2024-04-11T16:27:28.690Z,7.20
2024-04-11T16:31:18.722Z,3.70
2024-04-11T16:34:44.816Z,8.20
2024-04-11T16:38:12.061Z,6.20
2024-04-11T16:41:39.652Z,6.00
2024-04-11T16:45:21.267Z,5.80
2024-04-11T16:48:47.146Z,7.90
2024-04-11T16:52:17.716Z,7.00
2024-04-11T16:55:48.371Z,4.80
2024-04-11T16:59:21.067Z,7.00
2024-04-11T17:02:46.858Z,3.00
2024-04-11T17:06:15.043Z,5.10
2024-04-11T17:09:40.955Z,3.90
2024-04-11T17:13:11.872Z,7.50
2024-04-11T17:17:00.937Z,6.00
2024-04-11T17:20:50.733Z,5.10
2024-04-11T17:27:48.314Z,8.70
2024-04-11T17:31:25.881Z,7.90
2024-04-11T17:34:56.505Z,8.80
2024-04-11T17:38:34.810Z,7.60
2024-04-11T17:42:14.193Z,7.70
2024-04-11T17:45:44.766Z,11.40
2024-04-11T17:49:27.333Z,6.60
2024-04-11T17:52:56.182Z,8.20
2024-04-11T17:56:25.331Z,6.80
2024-04-11T17:59:54.103Z,7.10
2024-04-11T18:03:21.689Z,16.00
2024-04-11T18:06:50.945Z,7.70
2024-04-11T18:10:17.236Z,7.10
2024-04-11T18:13:43.270Z,11.40
2024-04-11T18:17:11.894Z,11.40
2024-04-11T18:20:40.640Z,10.20
2024-04-11T18:24:13.284Z,11.30
2024-04-11T18:27:41.253Z,21.50
2024-04-11T18:31:07.720Z,15.70
2024-04-11T18:34:36.109Z,20.40
2024-04-11T18:38:01.826Z,17.10
2024-04-11T18:41:41.793Z,13.10
2024-04-11T18:45:18.560Z,11.60
2024-04-11T18:48:49.414Z,11.00
2024-04-11T18:52:23.841Z,15.50
2024-04-11T18:55:51.418Z,17.10
2024-04-11T18:59:22.294Z,17.50
2024-04-11T19:02:48.142Z,20.80
2024-04-11T19:06:17.361Z,17.00
2024-04-11T19:10:02.183Z,27.00
2024-04-11T19:13:29.245Z,21.40
2024-04-11T19:16:55.040Z,21.70
2024-04-11T19:20:31.059Z,27.20
2024-04-11T19:24:07.647Z,23.50
2024-04-11T19:27:34.540Z,11.50
2024-04-11T19:31:00.259Z,12.10
2024-04-11T19:34:26.525Z,62.50
2024-04-11T19:38:01.085Z,95.90
2024-04-11T19:41:28.393Z,40.10
2024-04-11T19:44:54.335Z,19.80
2024-04-11T19:48:30.175Z,14.10
2024-04-11T19:51:58.696Z,11.90
2024-04-11T19:55:28.574Z,10.00
2024-04-11T20:06:00.259Z,6.90
2024-04-11T20:09:26.818Z,7.00
2024-04-11T20:12:55.099Z,10.00
2024-04-11T20:16:22.243Z,8.40
2024-04-11T20:19:50.123Z,9.80
2024-04-11T20:23:20.311Z,9.00
2024-04-11T20:26:47.454Z,12.20
2024-04-11T20:30:16.477Z,10.00
2024-04-11T20:33:44.102Z,14.90
2024-04-11T20:37:09.934Z,10.70
2024-04-11T20:40:36.757Z,7.70
2024-04-11T20:44:23.853Z,14.60
2024-04-11T20:47:56.449Z,15.30
2024-04-11T20:51:40.581Z,9.10
2024-04-11T20:55:25.530Z,8.90
2024-04-11T20:59:09.652Z,13.40
2024-04-11T21:02:53.689Z,9.60
2024-04-11T21:06:37.925Z,10.30
2024-04-11T21:10:22.177Z,12.30
2024-04-11T21:14:06.400Z,10.00
2024-04-11T21:17:50.078Z,10.00
2024-04-11T21:21:33.763Z,8.50
2024-04-11T21:25:18.361Z,8.00
2024-04-11T21:29:03.207Z,8.30
2024-04-11T21:32:47.840Z,8.20
2024-04-11T21:36:17.485Z,11.30
2024-04-11T21:39:51.280Z,9.30
2024-04-11T21:43:26.223Z,9.20
2024-04-11T21:46:56.289Z,7.50
2024-04-11T21:50:32.283Z,11.10
2024-04-11T21:54:00.986Z,5.90
2024-04-11T21:57:29.518Z,8.50
2024-04-11T22:01:04.217Z,7.50
2024-04-11T22:04:34.536Z,12.00
2024-04-11T22:08:08.239Z,11.40
2024-04-11T22:11:35.412Z,8.90
2024-04-11T22:15:02.754Z,12.20
2024-04-11T22:18:31.777Z,14.40
2024-04-11T22:21:59.176Z,16.30
2024-04-11T22:25:27.147Z,9.80
2024-04-11T22:28:55.685Z,9.20
2024-04-11T22:32:25.775Z,8.40
2024-04-11T22:35:58.312Z,10.40
2024-04-11T22:39:39.096Z,9.70
2024-04-11T22:43:16.240Z,9.10
2024-04-11T22:46:50.338Z,9.80
2024-04-11T22:50:20.922Z,10.30
2024-04-11T22:53:53.895Z,8.20
2024-04-11T22:57:22.556Z,7.70
2024-04-11T23:00:49.692Z,10.60
2024-04-11T23:04:31.574Z,10.90
2024-04-11T23:08:02.173Z,11.80
2024-04-11T23:11:30.338Z,12.50
2024-04-11T23:15:12.260Z,12.20
2024-04-11T23:18:40.825Z,13.30
2024-04-11T23:22:09.146Z,11.50
2024-04-11T23:25:39.474Z,10.40
2024-04-11T23:29:09.975Z,10.60
2024-04-11T23:32:39.814Z,12.60
2024-04-11T23:36:08.870Z,22.00
2024-04-11T23:39:41.045Z,20.10
2024-04-11T23:43:11.263Z,12.30
2024-04-11T23:46:42.281Z,19.20
2024-04-11T23:50:13.520Z,12.80
2024-04-11T23:53:40.322Z,13.90
2024-04-11T23:57:11.250Z,11.50
